createdAt,value
2018-08-30T11:20:34.219Z,62.88
2018-08-30T11:21:12.406Z,62.48
2018-08-30T11:21:51.076Z,62.82
2018-08-30T11:22:28.936Z,62.39
2018-08-30T11:23:06.933Z,62.56
2018-08-30T11:23:44.977Z,62.69
2018-08-30T11:24:23.077Z,62.53
2018-08-30T11:25:01.086Z,62.44
2018-08-30T11:25:39.131Z,61.86
2018-08-30T11:26:17.015Z,61.93
2018-08-30T11:26:54.982Z,61.79
2018-08-30T11:27:33.186Z,61.56
2018-08-30T11:28:11.316Z,61.17
2018-08-30T11:28:50.460Z,61.11
2018-08-30T11:29:29.194Z,60.89
2018-08-30T11:30:07.189Z,60.81
2018-08-30T11:30:45.203Z,61.43
2018-08-30T11:31:23.389Z,61.09
2018-08-30T11:32:01.465Z,61.13
2018-08-30T11:32:39.415Z,61.21
2018-08-30T11:33:17.383Z,60.96
2018-08-30T11:33:55.463Z,61.23
2018-08-30T11:34:33.478Z,61.62
2018-08-30T11:35:12.481Z,61.64
2018-08-30T11:35:50.497Z,61.31
2018-08-30T11:36:28.446Z,61.80
2018-08-30T11:37:06.352Z,61.68
2018-08-30T11:37:44.445Z,61.74
2018-08-30T11:38:22.660Z,61.98
2018-08-30T11:39:00.630Z,61.85
2018-08-30T11:39:38.649Z,62.16
2018-08-30T11:40:16.777Z,62.02
2018-08-30T11:40:54.792Z,61.90
2018-08-30T11:41:32.800Z,61.77
2018-08-30T11:42:10.921Z,62.25
2018-08-30T11:42:49.001Z,61.97
2018-08-30T11:43:27.113Z,62.16
2018-08-30T11:44:05.132Z,62.13
2018-08-30T11:44:43.260Z,62.06
2018-08-30T11:45:22.196Z,62.32
2018-08-30T11:46:00.259Z,62.10
2018-08-30T11:46:39.327Z,62.83
2018-08-30T11:47:17.263Z,62.45
2018-08-30T11:47:55.286Z,62.29
2018-08-30T11:48:33.288Z,62.31
2018-08-30T11:49:11.336Z,62.51
2018-08-30T11:49:49.393Z,62.70
2018-08-30T11:50:27.456Z,62.15
2018-08-30T11:51:05.470Z,62.26
2018-08-30T11:51:43.436Z,62.56
2018-08-30T11:53:25.027Z,62.62
2018-08-30T11:54:03.220Z,62.74
2018-08-30T11:54:41.240Z,62.70
2018-08-30T11:55:19.283Z,62.80
2018-08-30T11:55:57.299Z,62.96
2018-08-30T11:56:35.374Z,62.87
2018-08-30T11:57:13.318Z,62.88
2018-08-30T11:57:52.469Z,63.08
2018-08-30T11:58:30.541Z,62.75
2018-08-30T11:59:08.618Z,62.97
2018-08-30T11:59:46.641Z,62.97
2018-08-30T12:00:24.675Z,62.86
2018-08-30T12:01:02.662Z,62.71
2018-08-30T12:01:41.131Z,62.65
2018-08-30T12:02:19.192Z,62.62
2018-08-30T12:02:57.216Z,62.44
2018-08-30T12:03:35.463Z,62.46
2018-08-30T12:04:14.458Z,62.61
2018-08-30T12:04:54.484Z,62.75
2018-08-30T12:05:32.591Z,62.55
2018-08-30T12:06:10.780Z,62.75
2018-08-30T12:06:48.818Z,62.68
2018-08-30T12:07:26.829Z,62.76
2018-08-30T12:08:04.878Z,62.62
2018-08-30T12:08:43.223Z,62.86
2018-08-30T12:09:21.269Z,62.95
2018-08-30T12:09:59.439Z,63.10
2018-08-30T12:10:39.359Z,62.72
2018-08-30T12:11:17.805Z,63.10
2018-08-30T12:11:56.331Z,62.97
2018-08-30T12:12:34.254Z,63.03
2018-08-30T12:13:12.369Z,63.12
2018-08-30T12:13:50.425Z,63.35
2018-08-30T12:14:28.485Z,63.69
2018-08-30T12:15:06.461Z,63.60
2018-08-30T12:15:44.317Z,63.55
2018-08-30T12:16:22.250Z,63.45
2018-08-30T12:17:00.244Z,63.84
2018-08-30T12:17:38.117Z,63.69
2018-08-30T12:18:16.688Z,63.23
2018-08-30T12:18:54.675Z,63.91
2018-08-30T12:19:32.832Z,63.75
2018-08-30T12:20:10.841Z,63.92
2018-08-30T12:20:48.831Z,63.78
2018-08-30T12:21:26.997Z,63.96
2018-08-30T12:22:06.085Z,64.05
2018-08-30T12:22:44.332Z,64.10
2018-08-30T12:23:22.421Z,64.44
2018-08-30T12:24:00.412Z,64.38
2018-08-30T12:24:38.303Z,64.58
2018-08-30T12:25:16.181Z,64.06
2018-08-30T12:25:54.791Z,64.13
2018-08-30T12:26:32.812Z,64.60
2018-08-30T12:27:10.976Z,64.16
2018-08-30T12:27:48.980Z,64.47
2018-08-30T12:28:27.068Z,64.54
2018-08-30T12:29:05.342Z,64.59
2018-08-30T12:29:43.373Z,64.57
2018-08-30T12:30:21.401Z,64.48
2018-08-30T12:30:59.893Z,64.80
2018-08-30T12:31:38.013Z,64.74
2018-08-30T12:32:17.095Z,65.51
2018-08-30T12:32:55.141Z,64.82
2018-08-30T12:33:33.185Z,64.87
2018-08-30T12:34:11.354Z,65.24
2018-08-30T12:34:49.262Z,65.16
2018-08-30T12:35:27.588Z,65.38
2018-08-30T12:36:05.615Z,65.29
2018-08-30T12:36:43.879Z,65.40
2018-08-30T12:37:21.962Z,65.64
2018-08-30T12:38:00.187Z,65.43
2018-08-30T12:38:38.212Z,66.17
2018-08-30T12:39:16.533Z,65.71
2018-08-30T12:39:54.676Z,66.06
2018-08-30T12:40:32.877Z,65.81
2018-08-30T12:41:11.056Z,65.82
2018-08-30T12:41:49.110Z,66.13
2018-08-30T12:42:27.197Z,66.31
2018-08-30T12:43:05.380Z,66.34
2018-08-30T12:43:43.459Z,66.14
2018-08-30T12:44:21.540Z,66.13
2018-08-30T12:44:59.622Z,66.34
2018-08-30T12:45:37.669Z,66.21
2018-08-30T12:46:15.657Z,66.32
2018-08-30T12:46:53.641Z,66.21
2018-08-30T12:47:31.716Z,65.93
2018-08-30T12:48:09.944Z,66.01
2018-08-30T12:48:47.868Z,66.08
2018-08-30T12:49:26.220Z,66.57
2018-08-30T12:50:04.402Z,66.08
2018-08-30T12:50:42.533Z,66.29
2018-08-30T12:51:20.803Z,65.85
2018-08-30T12:51:58.820Z,66.25
2018-08-30T12:52:36.979Z,66.51
2018-08-30T12:53:15.175Z,66.18
2018-08-30T12:53:53.403Z,66.01
2018-08-30T12:54:31.534Z,66.54
2018-08-30T12:55:09.811Z,66.27
2018-08-30T12:55:47.984Z,66.40
2018-08-30T12:56:26.153Z,66.66
2018-08-30T12:57:04.356Z,66.38
2018-08-30T12:57:42.531Z,66.75
2018-08-30T12:58:20.809Z,66.73
2018-08-30T12:59:03.955Z,66.55
2018-08-30T12:59:44.102Z,66.91
2018-08-30T13:00:22.262Z,66.92
2018-08-30T13:01:00.331Z,67.83
2018-08-30T13:01:38.448Z,67.15
2018-08-30T13:02:16.649Z,67.27
2018-08-30T13:02:54.859Z,66.94
2018-08-30T13:03:32.974Z,68.20
2018-08-30T13:04:11.407Z,68.40
2018-08-30T13:04:49.822Z,67.97
2018-08-30T13:05:28.103Z,67.20
2018-08-30T13:06:07.285Z,67.95
2018-08-30T13:06:48.043Z,67.90
2018-08-30T13:07:27.694Z,67.90
2018-08-30T13:08:05.804Z,68.29
2018-08-30T13:08:44.053Z,67.73
2018-08-30T13:09:22.305Z,68.03
2018-08-30T13:10:00.554Z,68.16
2018-08-30T13:10:38.825Z,67.42
2018-08-30T13:11:17.190Z,68.27
2018-08-30T13:11:55.495Z,67.48
2018-08-30T13:12:33.743Z,67.61
2018-08-30T13:13:11.743Z,68.70
2018-08-30T13:13:49.946Z,68.33
2018-08-30T13:14:28.420Z,68.47
2018-08-30T13:15:06.650Z,68.54
2018-08-30T13:15:44.671Z,68.35
2018-08-30T13:16:22.815Z,67.43
2018-08-30T13:17:01.356Z,67.68
2018-08-30T13:17:39.626Z,68.07
2018-08-30T13:18:17.898Z,67.66
2018-08-30T13:18:56.065Z,67.22
2018-08-30T13:19:34.292Z,68.00
2018-08-30T13:20:13.108Z,66.84
2018-08-30T13:20:51.242Z,67.73
2018-08-30T13:21:29.239Z,66.89
2018-08-30T13:22:07.619Z,67.53
2018-08-30T13:22:45.600Z,67.82
2018-08-30T13:23:23.747Z,67.41
2018-08-30T13:24:02.318Z,68.03
2018-08-30T13:24:40.619Z,67.63
2018-08-30T13:25:18.703Z,67.16
2018-08-30T13:25:59.788Z,67.71
2018-08-30T13:26:37.938Z,67.92
2018-08-30T13:27:16.058Z,67.48
2018-08-30T13:27:54.235Z,68.15
2018-08-30T13:28:32.637Z,67.71
2018-08-30T13:29:10.660Z,67.77
2018-08-30T13:29:48.923Z,68.23
2018-08-30T13:30:27.279Z,67.83
2018-08-30T13:31:05.292Z,67.87
2018-08-30T13:31:44.035Z,67.55
2018-08-30T13:32:22.303Z,67.77
2018-08-30T13:33:00.746Z,67.72
2018-08-30T13:33:38.743Z,67.94
2018-08-30T13:34:17.629Z,68.03
2018-08-30T13:34:55.839Z,68.28
2018-08-30T13:35:33.930Z,67.39
2018-08-30T13:36:12.179Z,67.23
2018-08-30T13:36:50.449Z,68.17
2018-08-30T13:37:28.538Z,66.98
2018-08-30T13:38:06.963Z,67.26
2018-08-30T13:38:45.211Z,67.06
2018-08-30T13:39:23.225Z,67.73
2018-08-30T13:40:01.593Z,67.85
2018-08-30T13:40:39.810Z,68.41
2018-08-30T13:41:19.035Z,67.83
2018-08-30T13:41:57.614Z,68.00
2018-08-30T13:42:35.622Z,67.62
2018-08-30T13:43:13.784Z,68.01
2018-08-30T13:43:52.147Z,68.63
2018-08-30T13:44:30.086Z,68.44
2018-08-30T13:45:08.457Z,68.84
2018-08-30T13:45:46.433Z,68.13
2018-08-30T13:46:24.808Z,68.92
2018-08-30T13:47:03.061Z,68.99
2018-08-30T13:47:41.064Z,68.22
2018-08-30T13:48:19.245Z,67.87
2018-08-30T13:48:57.660Z,68.54
2018-08-30T13:49:35.417Z,68.35
2018-08-30T13:50:14.877Z,69.05
2018-08-30T13:50:52.938Z,68.98
2018-08-30T13:51:31.109Z,68.54
2018-08-30T13:52:09.375Z,68.62
2018-08-30T13:52:47.623Z,68.13
2018-08-30T13:53:25.738Z,68.30
2018-08-30T13:54:03.959Z,68.62
2018-08-30T13:54:42.240Z,68.72
2018-08-30T13:55:20.411Z,69.18
2018-08-30T13:55:58.451Z,67.81
2018-08-30T13:56:36.748Z,68.17
2018-08-30T13:57:15.159Z,68.55
2018-08-30T13:57:53.139Z,68.95
2018-08-30T13:58:31.543Z,69.15
2018-08-30T13:59:09.443Z,68.81
2018-08-30T13:59:47.671Z,68.49
2018-08-30T14:00:25.832Z,69.58
2018-08-30T14:01:04.148Z,68.87
2018-08-30T14:01:42.148Z,68.97
2018-08-30T14:02:20.624Z,69.35
2018-08-30T14:02:58.702Z,68.99
2018-08-30T14:03:37.093Z,69.44
2018-08-30T14:04:15.265Z,68.75
2018-08-30T14:04:53.713Z,69.32
2018-08-30T14:05:32.003Z,68.93
2018-08-30T14:06:10.287Z,68.34
2018-08-30T14:06:48.519Z,68.46
2018-08-30T14:07:26.628Z,69.32
2018-08-30T14:08:04.948Z,69.48
2018-08-30T14:08:43.220Z,68.19
2018-08-30T14:09:21.360Z,68.50
2018-08-30T14:09:59.468Z,69.03
2018-08-30T14:10:37.770Z,69.14
2018-08-30T14:11:15.854Z,68.31
2018-08-30T14:11:54.108Z,68.40
2018-08-30T14:12:31.992Z,68.99
2018-08-30T14:13:10.390Z,69.26
2018-08-30T14:13:48.537Z,68.30
2018-08-30T14:14:26.672Z,68.92
2018-08-30T14:15:05.009Z,69.01
2018-08-30T14:15:42.732Z,68.82
2018-08-30T14:16:20.737Z,68.93
2018-08-30T14:16:58.711Z,68.56
2018-08-30T14:17:36.680Z,68.78
2018-08-30T14:18:14.707Z,69.46
2018-08-30T14:18:53.295Z,68.52
2018-08-30T14:19:31.261Z,69.05
2018-08-30T14:20:09.568Z,68.60
2018-08-30T14:20:47.807Z,68.97
2018-08-30T14:21:25.834Z,69.05
2018-08-30T14:22:04.346Z,69.22
2018-08-30T14:22:42.404Z,68.37
2018-08-30T14:23:20.538Z,68.67
2018-08-30T14:23:58.532Z,68.80
2018-08-30T14:24:36.413Z,69.61
2018-08-30T14:25:15.358Z,68.71
2018-08-30T14:25:53.328Z,69.09
2018-08-30T14:26:31.347Z,69.19
2018-08-30T14:27:09.329Z,69.58
2018-08-30T14:27:47.527Z,69.55
2018-08-30T14:28:25.559Z,69.12
2018-08-30T14:29:03.667Z,68.98
2018-08-30T14:29:42.071Z,69.43
2018-08-30T14:30:20.088Z,69.79
2018-08-30T14:30:58.195Z,69.37
2018-08-30T14:31:36.228Z,69.09
2018-08-30T14:32:15.010Z,69.94
2018-08-30T14:32:53.181Z,69.73
2018-08-30T14:33:31.196Z,69.12
2018-08-30T14:34:09.247Z,70.17
2018-08-30T14:34:47.281Z,68.91
2018-08-30T14:35:25.207Z,69.38
2018-08-30T14:36:03.219Z,68.93
2018-08-30T14:36:41.302Z,69.61
2018-08-30T14:37:19.322Z,69.07
2018-08-30T14:37:57.206Z,69.34
2018-08-30T14:38:35.093Z,70.07
2018-08-30T14:39:14.495Z,69.97
2018-08-30T14:39:52.501Z,70.28
2018-08-30T14:40:30.676Z,70.08
2018-08-30T14:41:09.432Z,69.39
2018-08-30T14:41:48.232Z,70.62
2018-08-30T14:42:26.665Z,69.85
2018-08-30T14:43:05.459Z,70.12
2018-08-30T14:43:43.649Z,70.80
2018-08-30T14:44:21.769Z,70.11
2018-08-30T14:44:59.877Z,69.72
2018-08-30T14:45:37.838Z,70.17
2018-08-30T14:46:16.236Z,69.59
2018-08-30T14:46:55.534Z,69.64
2018-08-30T14:47:33.776Z,70.33
2018-08-30T14:48:11.860Z,70.38
2018-08-30T14:48:49.712Z,71.20
2018-08-30T14:49:28.060Z,70.33
2018-08-30T14:50:06.226Z,71.25
2018-08-30T14:50:44.191Z,70.46
2018-08-30T14:51:22.344Z,71.00
2018-08-30T14:52:01.331Z,70.92
2018-08-30T14:52:39.324Z,71.12
2018-08-30T14:53:17.511Z,70.04
2018-08-30T14:53:55.920Z,71.42
2018-08-30T14:54:34.056Z,70.56
2018-08-30T14:55:12.114Z,71.18
2018-08-30T14:55:50.256Z,70.86
2018-08-30T14:56:29.405Z,70.90
2018-08-30T14:57:07.393Z,70.36
2018-08-30T14:57:45.428Z,70.99
2018-08-30T14:58:23.436Z,71.20
2018-08-30T14:59:01.478Z,71.30
2018-08-30T14:59:39.472Z,71.03
2018-08-30T15:00:17.911Z,70.33
2018-08-30T15:00:56.029Z,70.53
2018-08-30T15:01:33.987Z,71.12
2018-08-30T15:02:11.976Z,71.49
2018-08-30T15:02:49.977Z,71.76
2018-08-30T15:03:27.885Z,71.90
2018-08-30T15:04:05.924Z,70.62
2018-08-30T15:04:43.828Z,71.09
2018-08-30T15:05:21.956Z,71.14
2018-08-30T15:06:00.131Z,70.67
2018-08-30T15:06:38.258Z,70.68
2018-08-30T15:07:16.189Z,71.72
2018-08-30T15:07:54.228Z,70.69
2018-08-30T15:08:32.263Z,70.70
2018-08-30T15:09:11.714Z,70.40
2018-08-30T15:09:49.687Z,70.73
2018-08-30T15:10:27.813Z,70.46
2018-08-30T15:11:05.905Z,70.13
2018-08-30T15:11:44.100Z,71.04
2018-08-30T15:12:22.122Z,71.07
2018-08-30T15:13:00.498Z,70.66
2018-08-30T15:13:38.567Z,71.69
2018-08-30T15:14:17.130Z,70.77
2018-08-30T15:14:55.234Z,70.84
2018-08-30T15:15:33.613Z,71.82
2018-08-30T15:16:11.935Z,70.48
2018-08-30T15:16:49.984Z,70.54
2018-08-30T15:17:28.140Z,71.10
2018-08-30T15:18:06.156Z,70.84
2018-08-30T15:18:44.390Z,71.23
2018-08-30T15:19:22.544Z,71.52
2018-08-30T15:20:01.056Z,71.87
2018-08-30T15:20:39.109Z,71.61
2018-08-30T15:21:16.979Z,70.57
2018-08-30T15:21:55.122Z,71.08
2018-08-30T15:22:33.234Z,71.58
2018-08-30T15:23:11.872Z,71.67
2018-08-30T15:23:50.288Z,71.75
2018-08-30T15:24:28.205Z,70.94
2018-08-30T15:25:06.287Z,71.98
2018-08-30T15:25:44.471Z,71.04
2018-08-30T15:26:22.332Z,71.05
2018-08-30T15:27:00.535Z,71.38
2018-08-30T15:27:38.367Z,71.10
2018-08-30T15:28:16.705Z,71.82
2018-08-30T15:29:00.315Z,71.42
2018-08-30T15:29:38.345Z,71.69
2018-08-30T15:30:17.124Z,71.59
2018-08-30T15:30:55.121Z,72.60
2018-08-30T15:31:33.094Z,71.25
2018-08-30T15:32:11.142Z,71.61
2018-08-30T15:32:49.147Z,71.78
2018-08-30T15:33:27.234Z,71.16
2018-08-30T15:34:05.166Z,72.47
2018-08-30T15:34:43.473Z,72.64
2018-08-30T15:35:21.496Z,72.78
2018-08-30T15:35:59.457Z,71.67
2018-08-30T15:36:37.497Z,72.15
2018-08-30T15:37:15.631Z,72.26
2018-08-30T15:37:53.831Z,72.79
2018-08-30T15:38:31.778Z,72.42
2018-08-30T15:39:12.567Z,72.75
2018-08-30T15:39:50.460Z,71.46
2018-08-30T15:40:28.792Z,71.56
2018-08-30T15:41:06.893Z,72.30
2018-08-30T15:41:44.947Z,72.23
2018-08-30T15:42:23.343Z,72.11
2018-08-30T15:43:01.392Z,72.96
2018-08-30T15:43:39.472Z,72.20
2018-08-30T15:44:17.549Z,72.12
2018-08-30T15:44:55.456Z,72.69
2018-08-30T15:45:33.326Z,71.67
2018-08-30T15:46:11.608Z,72.39
2018-08-30T15:46:49.806Z,73.12
2018-08-30T15:47:28.026Z,72.50
2018-08-30T15:48:06.243Z,72.64
2018-08-30T15:48:44.750Z,72.51
2018-08-30T15:49:23.183Z,73.14
2018-08-30T15:50:01.980Z,72.99
2018-08-30T15:50:39.944Z,73.14
2018-08-30T15:51:17.875Z,71.87
2018-08-30T15:51:56.122Z,72.57
2018-08-30T15:52:34.066Z,72.38
2018-08-30T15:53:12.221Z,73.09
2018-08-30T15:53:50.479Z,71.70
2018-08-30T15:54:28.691Z,72.93
2018-08-30T15:55:06.876Z,72.55
2018-08-30T15:55:44.763Z,71.92
2018-08-30T15:56:22.791Z,71.92
2018-08-30T15:57:00.868Z,72.29
2018-08-30T15:57:39.123Z,72.56
2018-08-30T15:58:17.055Z,73.07
2018-08-30T15:58:55.064Z,71.61
2018-08-30T15:59:33.322Z,72.49
2018-08-30T16:00:12.374Z,73.17
2018-08-30T16:00:50.365Z,73.16
2018-08-30T16:01:28.306Z,71.73
2018-08-30T16:02:06.302Z,73.24
2018-08-30T16:02:44.319Z,72.52
2018-08-30T16:03:22.593Z,72.08
2018-08-30T16:04:00.542Z,72.02
2018-08-30T16:04:38.714Z,73.33
2018-08-30T16:05:16.758Z,72.59
2018-08-30T16:05:54.822Z,73.46
2018-08-30T16:06:32.914Z,72.38
2018-08-30T16:07:10.844Z,73.20
2018-08-30T16:07:48.818Z,72.78
2018-08-30T16:08:26.980Z,73.53
2018-08-30T16:09:05.003Z,72.18
2018-08-30T16:09:42.977Z,72.38
2018-08-30T16:10:21.265Z,73.42
2018-08-30T16:10:59.246Z,72.90
2018-08-30T16:11:37.208Z,72.62
2018-08-30T16:12:15.244Z,73.60
2018-08-30T16:12:53.238Z,73.73
2018-08-30T16:13:31.221Z,73.65
2018-08-30T16:14:09.204Z,72.54
2018-08-30T16:14:47.236Z,73.89
2018-08-30T16:15:25.234Z,72.48
2018-08-30T16:16:03.704Z,72.54
2018-08-30T16:16:41.916Z,73.58
2018-08-30T16:17:20.083Z,72.53
2018-08-30T16:17:58.053Z,73.77
2018-08-30T16:18:36.853Z,72.95
2018-08-30T16:19:14.923Z,72.88
2018-08-30T16:19:53.066Z,72.45
2018-08-30T16:20:31.086Z,72.82
2018-08-30T16:21:09.140Z,73.52
2018-08-30T16:21:47.103Z,72.54
2018-08-30T16:22:29.253Z,73.76
2018-08-30T16:23:12.448Z,72.50
2018-08-30T16:23:51.429Z,72.72
2018-08-30T16:24:29.391Z,72.53
2018-08-30T16:25:07.641Z,73.56
2018-08-30T16:25:45.643Z,73.21
2018-08-30T16:26:23.539Z,73.37
2018-08-30T16:27:01.687Z,72.88
2018-08-30T16:27:39.798Z,72.54
2018-08-30T16:28:17.816Z,72.88
2018-08-30T16:28:55.724Z,73.44
2018-08-30T16:29:33.929Z,73.24
2018-08-30T16:30:11.909Z,73.92
2018-08-30T16:30:50.021Z,73.35
2018-08-30T16:31:28.094Z,73.16
2018-08-30T16:32:06.139Z,72.74
2018-08-30T16:32:44.132Z,72.74
2018-08-30T16:33:22.019Z,73.84
2018-08-30T16:34:00.205Z,73.80
2018-08-30T16:34:38.201Z,73.20
2018-08-30T16:35:16.285Z,73.81
2018-08-30T16:35:54.399Z,73.18
2018-08-30T16:36:32.577Z,72.60
2018-08-30T16:37:10.883Z,74.12
2018-08-30T16:37:49.054Z,73.64
2018-08-30T16:38:27.110Z,73.89
2018-08-30T16:39:05.364Z,74.11
2018-08-30T16:39:43.721Z,74.06
2018-08-30T16:40:21.615Z,72.90
2018-08-30T16:40:59.591Z,73.20
2018-08-30T16:41:37.906Z,73.96
2018-08-30T16:42:16.658Z,73.24
2018-08-30T16:42:54.901Z,73.55
2018-08-30T16:43:32.911Z,74.24
2018-08-30T16:44:11.140Z,73.67
2018-08-30T16:44:49.021Z,73.21
2018-08-30T16:45:26.971Z,73.48
2018-08-30T16:46:04.981Z,73.57
2018-08-30T16:46:42.888Z,73.83
2018-08-30T16:47:21.039Z,73.65
2018-08-30T16:47:59.238Z,72.82
2018-08-30T16:48:37.257Z,73.64
2018-08-30T16:49:15.386Z,73.22
2018-08-30T16:49:53.480Z,73.34
2018-08-30T16:50:32.242Z,74.28
2018-08-30T16:51:10.184Z,73.86
2018-08-30T16:51:48.131Z,74.25
2018-08-30T16:52:26.498Z,73.36
2018-08-30T16:53:04.851Z,74.05
2018-08-30T16:53:42.885Z,74.44
2018-08-30T16:54:20.799Z,73.01
2018-08-30T16:54:58.754Z,74.32
2018-08-30T16:55:37.313Z,74.17
2018-08-30T16:56:15.558Z,73.37
2018-08-30T16:56:53.694Z,73.10
2018-08-30T16:57:31.723Z,73.91
2018-08-30T16:58:10.190Z,74.40
2018-08-30T16:58:48.158Z,73.59
2018-08-30T16:59:26.159Z,73.22
2018-08-30T17:00:04.191Z,73.43
2018-08-30T17:00:42.127Z,73.66
2018-08-30T17:01:20.324Z,74.72
2018-08-30T17:01:58.352Z,74.14
2018-08-30T17:02:36.274Z,73.59
2018-08-30T17:03:14.481Z,73.78
2018-08-30T17:03:52.446Z,73.87
2018-08-30T17:04:30.400Z,74.45
2018-08-30T17:05:08.495Z,73.46
2018-08-30T17:05:46.522Z,74.20
2018-08-30T17:06:24.542Z,73.79
2018-08-30T17:07:02.813Z,73.26
2018-08-30T17:07:41.030Z,73.22
2018-08-30T17:08:18.970Z,73.55
2018-08-30T17:08:56.882Z,74.04
2018-08-30T17:09:34.794Z,73.75
2018-08-30T17:10:12.931Z,73.39
2018-08-30T17:10:51.012Z,73.29
2018-08-30T17:11:29.274Z,73.32
2018-08-30T17:12:07.532Z,74.54
2018-08-30T17:12:45.593Z,73.64
2018-08-30T17:13:23.928Z,74.47
2018-08-30T17:14:01.888Z,74.74
2018-08-30T17:14:39.845Z,74.52
2018-08-30T17:15:17.921Z,74.21
2018-08-30T17:15:55.831Z,74.31
2018-08-30T17:16:33.991Z,73.46
2018-08-30T17:17:12.039Z,73.49
2018-08-30T17:17:50.236Z,73.98
2018-08-30T17:18:28.253Z,74.50
2018-08-30T17:19:14.131Z,73.96
2018-08-30T17:19:52.491Z,74.48
2018-08-30T17:20:36.914Z,75.03
2018-08-30T17:21:15.127Z,74.64
2018-08-30T17:21:53.287Z,73.83
2018-08-30T17:22:31.231Z,73.57
2018-08-30T17:23:09.248Z,73.40
2018-08-30T17:23:47.275Z,74.57
2018-08-30T17:24:25.374Z,73.97
2018-08-30T17:25:03.423Z,74.59
2018-08-30T17:25:41.738Z,73.26
2018-08-30T17:26:19.995Z,73.01
2018-08-30T17:26:58.069Z,73.50
2018-08-30T17:27:36.182Z,74.09
2018-08-30T17:28:14.472Z,73.74
2018-08-30T17:28:52.463Z,73.57
2018-08-30T17:29:30.498Z,73.84
2018-08-30T17:30:09.056Z,74.46
2018-08-30T17:30:47.192Z,74.89
2018-08-30T17:31:25.462Z,74.83
2018-08-30T17:32:03.607Z,73.69
2018-08-30T17:32:41.712Z,74.42
2018-08-30T17:33:19.720Z,74.96
2018-08-30T17:33:57.805Z,73.87
2018-08-30T17:34:35.891Z,74.13
2018-08-30T17:35:13.779Z,75.12
2018-08-30T17:35:51.649Z,73.80
2018-08-30T17:36:29.737Z,75.32
2018-08-30T17:37:07.920Z,75.07
2018-08-30T17:37:46.060Z,74.11
2018-08-30T17:38:24.046Z,73.95
2018-08-30T17:39:02.022Z,74.83
2018-08-30T17:39:39.993Z,74.26
2018-08-30T17:40:18.058Z,74.51
2018-08-30T17:40:55.971Z,73.89
2018-08-30T17:41:34.287Z,73.48
2018-08-30T17:42:12.542Z,73.92
2018-08-30T17:42:51.080Z,74.41
2018-08-30T17:43:29.032Z,74.00
2018-08-30T17:44:07.842Z,74.86
2018-08-30T17:44:45.844Z,73.87
2018-08-30T17:45:24.042Z,75.36
2018-08-30T17:46:02.034Z,75.38
2018-08-30T17:46:40.206Z,74.63
2018-08-30T17:47:18.150Z,74.25
2018-08-30T17:47:56.042Z,74.84
2018-08-30T17:48:34.913Z,74.49
2018-08-30T17:49:12.880Z,73.91
2018-08-30T17:49:50.887Z,74.08
2018-08-30T17:50:28.892Z,74.61
2018-08-30T17:51:08.125Z,73.70
2018-08-30T17:51:46.288Z,74.63
2018-08-30T17:52:24.168Z,74.65
2018-08-30T17:53:02.236Z,73.71
2018-08-30T17:53:40.326Z,73.97
2018-08-30T17:54:20.231Z,74.73
2018-08-30T17:54:58.702Z,74.39
2018-08-30T17:55:36.684Z,73.95
2018-08-30T17:56:14.654Z,74.84
2018-08-30T17:56:52.618Z,74.37
2018-08-30T17:57:31.002Z,74.89
2018-08-30T17:58:09.291Z,75.03
2018-08-30T17:58:47.404Z,73.88
2018-08-30T17:59:25.400Z,75.07
2018-08-30T18:00:03.429Z,74.22
2018-08-30T18:00:41.421Z,74.60
2018-08-30T18:01:19.548Z,74.10
2018-08-30T18:01:57.809Z,74.97
2018-08-30T18:02:35.697Z,73.74
2018-08-30T18:03:13.696Z,74.38
2018-08-30T18:03:52.337Z,73.91
2018-08-30T18:04:30.309Z,73.73
2018-08-30T18:05:09.146Z,74.50
2018-08-30T18:05:48.020Z,73.83
2018-08-30T18:06:25.916Z,73.70
2018-08-30T18:07:04.764Z,74.51
2018-08-30T18:07:42.797Z,74.75
2018-08-30T18:08:20.698Z,74.35
2018-08-30T18:08:58.739Z,74.19
2018-08-30T18:09:36.732Z,74.70
2018-08-30T18:10:14.944Z,73.74
2018-08-30T18:10:53.044Z,73.71
2018-08-30T18:11:31.355Z,74.78
2018-08-30T18:12:51.374Z,74.64
2018-08-30T18:13:29.372Z,75.20
2018-08-30T18:14:07.396Z,75.24
2018-08-30T18:14:45.471Z,75.06
2018-08-30T18:15:23.441Z,74.25
2018-08-30T18:16:01.370Z,74.55
2018-08-30T18:16:39.333Z,74.71
2018-08-30T18:17:17.430Z,75.27
2018-08-30T18:17:55.379Z,75.18
2018-08-30T18:18:34.569Z,74.00
2018-08-30T18:19:12.709Z,75.09
2018-08-30T18:19:50.835Z,75.16
2018-08-30T18:20:28.759Z,75.34
2018-08-30T18:21:07.596Z,74.93
2018-08-30T18:21:45.585Z,74.69
2018-08-30T18:22:23.681Z,74.09
2018-08-30T18:23:01.555Z,73.81
2018-08-30T18:23:39.536Z,73.99
2018-08-30T18:24:17.659Z,74.24
2018-08-30T18:24:56.033Z,74.32
2018-08-30T18:25:47.533Z,74.67
2018-08-30T18:26:25.475Z,74.70
2018-08-30T18:27:03.505Z,74.91
2018-08-30T18:27:42.044Z,75.20
2018-08-30T18:28:20.925Z,74.63
2018-08-30T18:28:58.999Z,74.12
2018-08-30T18:29:37.289Z,74.54
2018-08-30T18:30:15.712Z,75.62
2018-08-30T18:30:53.660Z,74.51
2018-08-30T18:31:31.592Z,75.58
2018-08-30T18:32:10.498Z,74.49
2018-08-30T18:32:48.364Z,74.57
2018-08-30T18:33:26.371Z,75.23
2018-08-30T18:34:05.137Z,75.79
2018-08-30T18:34:44.786Z,75.62
2018-08-30T18:35:23.100Z,75.89
2018-08-30T18:36:01.089Z,75.17
2018-08-30T18:36:39.210Z,74.89
2018-08-30T18:37:17.693Z,74.15
2018-08-30T18:37:55.687Z,74.36
2018-08-30T18:38:33.732Z,75.46
2018-08-30T18:39:13.460Z,75.49
2018-08-30T18:39:51.539Z,74.78
2018-08-30T18:40:29.489Z,74.46
2018-08-30T18:41:07.719Z,74.46
2018-08-30T18:41:45.584Z,74.66
2018-08-30T18:42:23.573Z,75.72
2018-08-30T18:43:01.616Z,75.01
2018-08-30T18:43:39.780Z,74.63
2018-08-30T18:44:17.744Z,74.94
2018-08-30T18:44:55.731Z,75.49
2018-08-30T18:45:33.755Z,75.31
2018-08-30T18:46:11.881Z,74.67
2018-08-30T18:46:49.901Z,74.87
2018-08-30T18:47:27.806Z,75.75
2018-08-30T18:48:05.836Z,74.17
2018-08-30T18:48:43.775Z,74.35
2018-08-30T18:49:21.824Z,74.35
2018-08-30T18:49:59.929Z,75.63
2018-08-30T18:50:37.944Z,75.18
2018-08-30T18:51:15.868Z,74.06
2018-08-30T18:51:53.751Z,74.10
2018-08-30T18:52:31.648Z,74.57
2018-08-30T18:53:09.796Z,74.64
2018-08-30T18:53:47.777Z,74.16
2018-08-30T18:54:25.927Z,74.49
2018-08-30T18:55:03.884Z,74.39
2018-08-30T18:55:41.897Z,74.52
2018-08-30T18:56:19.887Z,74.00
2018-08-30T18:56:57.991Z,74.59
2018-08-30T18:57:36.040Z,74.24
2018-08-30T18:58:14.264Z,74.61
2018-08-30T18:58:52.316Z,75.25
2018-08-30T18:59:30.777Z,74.13
2018-08-30T19:00:09.064Z,75.38
2018-08-30T19:00:47.310Z,74.75
2018-08-30T19:01:25.450Z,75.67
2018-08-30T19:02:03.529Z,75.50
2018-08-30T19:02:41.838Z,74.09
2018-08-30T19:03:19.861Z,75.23
2018-08-30T19:03:57.882Z,74.31
2018-08-30T19:04:35.731Z,74.92
2018-08-30T19:05:13.732Z,75.44
2018-08-30T19:05:56.200Z,74.33
2018-08-30T19:06:34.285Z,74.57
2018-08-30T19:07:12.300Z,75.09
2018-08-30T19:07:50.272Z,75.13
2018-08-30T19:08:28.213Z,75.29
2018-08-30T19:09:06.827Z,75.07
2018-08-30T19:09:44.938Z,74.90
2018-08-30T19:10:22.879Z,75.51
2018-08-30T19:11:00.886Z,74.96
2018-08-30T19:11:38.931Z,75.48
2018-08-30T19:12:16.856Z,75.67
2018-08-30T19:12:54.879Z,74.24
2018-08-30T19:13:37.053Z,74.62
2018-08-30T19:14:15.080Z,74.93
2018-08-30T19:14:53.227Z,74.37
2018-08-30T19:15:35.182Z,74.32
2018-08-30T19:16:17.286Z,75.41
2018-08-30T19:16:59.328Z,74.68
2018-08-30T19:17:41.371Z,74.58
2018-08-30T19:18:23.393Z,74.79
2018-08-30T19:19:05.334Z,74.96
2018-08-30T19:19:43.617Z,75.05
2018-08-30T19:20:21.620Z,74.48
2018-08-30T19:21:00.025Z,75.24
2018-08-30T19:21:38.205Z,74.12
2018-08-30T19:22:17.061Z,75.73
2018-08-30T19:22:55.004Z,74.77
2018-08-30T19:23:32.903Z,75.37
2018-08-30T19:24:14.414Z,75.60
2018-08-30T19:24:56.630Z,76.05
2018-08-30T19:25:35.684Z,74.44
2018-08-30T19:26:13.616Z,75.76
2018-08-30T19:26:53.032Z,75.51
2018-08-30T19:27:30.984Z,75.11
2018-08-30T19:28:08.898Z,74.91
2018-08-30T19:28:47.280Z,74.78
2018-08-30T19:29:25.341Z,75.97
2018-08-30T19:30:07.385Z,75.05
2018-08-30T19:30:46.455Z,75.26
2018-08-30T19:31:24.501Z,76.04
2018-08-30T19:32:02.455Z,75.71
2018-08-30T19:32:40.785Z,75.27
2018-08-30T19:33:19.022Z,75.07
2018-08-30T19:33:57.019Z,75.00
2018-08-30T19:34:34.894Z,76.29
2018-08-30T19:35:16.965Z,76.21